Time;durP1;ratioP1;P1;durP2;ratioP2;P2;SDS_P1;SDS_P2;PMS_P1;PMS_P2;Temp;Humidity;BMP_temperature;BMP_pressure;BME280_temperature;BME280_humidity;BME280_pressure;Samples;Min_cycle;Max_cycle;Signal;HPM_P1;HPM_P2
2021/05/28 00:01:29;;;;;;;8.88;5.60;;;;;;;9.14;100.00;98648.55;3817796;77;44517;-25
2021/05/28 00:06:35;;;;;;;7.83;5.47;;;;;;;9.13;100.00;98650.88;3765339;77;44038;-25
2021/05/28 00:11:41;;;;;;;6.87;5.28;;;;;;;9.13;100.00;98649.53;3822424;76;44806;-25
2021/05/28 00:16:47;;;;;;;7.05;5.45;;;;;;;9.11;100.00;98646.17;3779090;77;43448;-25
2021/05/28 00:21:54;;;;;;;10.50;6.30;;;;;;;9.17;100.00;98657.67;3836174;76;43388;-25
2021/05/28 00:27:00;;;;;;;8.95;5.25;;;;;;;9.17;100.00;98656.33;3832042;76;43980;-25
2021/05/28 00:32:07;;;;;;;8.20;5.20;;;;;;;9.14;100.00;98663.84;3792328;77;44044;-25
2021/05/28 00:37:13;;;;;;;8.08;5.67;;;;;;;9.17;100.00;98654.98;3808024;76;42891;-25
2021/05/28 00:42:19;;;;;;;7.37;5.30;;;;;;;9.17;100.00;98653.64;3837572;76;44221;-24
2021/05/28 00:47:25;;;;;;;8.75;5.90;;;;;;;9.21;100.00;98663.59;3777365;77;44088;-25
2021/05/28 00:52:31;;;;;;;8.43;5.28;;;;;;;9.18;100.00;98662.53;3719852;79;43711;-25
2021/05/28 00:57:37;;;;;;;7.62;5.65;;;;;;;9.17;100.00;98662.22;3816121;76;44288;-25
2021/05/28 01:02:43;;;;;;;9.35;5.80;;;;;;;9.20;100.00;98668.62;3777660;77;43656;-25
2021/05/28 01:07:49;;;;;;;8.10;6.05;;;;;;;9.17;100.00;98665.73;3823216;76;44065;-25
2021/05/28 01:13:03;;;;;;;9.23;6.17;;;;;;;9.14;100.00;98663.33;3782051;77;43753;-25
2021/05/28 01:18:10;;;;;;;8.53;6.10;;;;;;;9.12;100.00;98665.31;3832736;76;42987;-25
2021/05/28 01:23:16;;;;;;;8.60;5.60;;;;;;;9.13;100.00;98671.55;3843492;76;43707;-25
2021/05/28 01:28:23;;;;;;;9.05;5.78;;;;;;;9.11;100.00;98664.98;3737243;77;42848;-25
2021/05/28 01:33:29;;;;;;;7.30;5.57;;;;;;;9.14;100.00;98665.19;3822829;76;44032;-25
2021/05/28 01:38:35;;;;;;;7.53;5.83;;;;;;;9.12;100.00;98671.20;3763551;77;44014;-25
2021/05/28 01:43:41;;;;;;;10.30;6.22;;;;;;;9.12;100.00;98675.23;3841356;76;43185;-24
2021/05/28 01:48:47;;;;;;;9.48;6.25;;;;;;;9.07;100.00;98681.87;3831449;76;42843;-25
2021/05/28 01:53:53;;;;;;;9.80;5.70;;;;;;;9.09;100.00;98674.52;3852172;76;43017;-25
2021/05/28 01:59:00;;;;;;;9.17;5.90;;;;;;;9.12;100.00;98681.95;3849981;76;43690;-25
2021/05/28 02:04:07;;;;;;;8.15;5.70;;;;;;;9.12;100.00;98682.78;3839625;76;44007;-25
2021/05/28 02:09:13;;;;;;;7.65;5.55;;;;;;;9.14;100.00;98682.66;3812304;76;43420;-25
2021/05/28 02:14:19;;;;;;;8.75;6.10;;;;;;;9.17;100.00;98687.75;3724363;79;43999;-25
2021/05/28 02:19:25;;;;;;;9.67;5.87;;;;;;;9.16;100.00;98705.70;3656349;81;69492;-25
2021/05/28 02:24:31;;;;;;;9.33;6.42;;;;;;;9.15;100.00;98708.04;3659128;81;43699;-25
2021/05/28 02:29:37;;;;;;;7.85;6.33;;;;;;;9.21;100.00;98703.92;3615435;81;44056;-25
2021/05/28 02:34:43;;;;;;;9.33;6.05;;;;;;;9.22;100.00;98706.96;3642173;80;43685;-25
2021/05/28 02:39:49;;;;;;;10.93;6.17;;;;;;;9.23;100.00;98712.69;3718133;79;43333;-25
2021/05/28 02:44:55;;;;;;;7.87;6.37;;;;;;;9.22;100.00;98714.55;3720117;79;44116;-26
2021/05/28 02:50:01;;;;;;;9.93;6.90;;;;;;;9.15;100.00;98716.10;3697993;80;43385;-26
2021/05/28 02:55:08;;;;;;;12.70;6.42;;;;;;;9.12;100.00;98719.58;3746029;79;44204;-26
2021/05/28 03:00:16;;;;;;;8.35;6.65;;;;;;;9.10;100.00;98718.39;3742964;79;43670;-26
2021/05/28 03:05:23;;;;;;;8.05;5.97;;;;;;;9.07;100.00;98717.33;3740907;79;43420;-26
2021/05/28 03:10:30;;;;;;;11.53;6.90;;;;;;;9.07;100.00;98720.02;3750431;77;42843;-26
2021/05/28 03:15:37;;;;;;;11.90;7.35;;;;;;;9.07;100.00;98726.23;3773358;77;43709;-26
2021/05/28 03:20:47;;;;;;;9.00;6.67;;;;;;;9.07;100.00;98726.23;3771547;77;44052;-26
2021/05/28 03:25:53;;;;;;;12.03;6.65;;;;;;;9.09;100.00;98734.17;3682994;79;43388;-25
2021/05/28 03:30:59;;;;;;;9.98;6.70;;;;;;;9.13;100.00;98734.72;3728451;79;43436;-26
2021/05/28 03:36:07;;;;;;;9.45;6.70;;;;;;;9.14;100.00;98735.08;3699842;79;43160;-25
2021/05/28 03:41:13;;;;;;;8.60;6.57;;;;;;;9.13;100.00;98738.24;3734456;79;69104;-26
2021/05/28 03:46:19;;;;;;;10.67;6.93;;;;;;;9.18;100.00;98747.21;3734213;79;44046;-26
2021/05/28 03:51:26;;;;;;;9.43;6.70;;;;;;;9.18;100.00;98745.88;3744358;78;44030;-26
2021/05/28 03:56:33;;;;;;;12.18;7.70;;;;;;;9.21;100.00;98753.17;3766334;77;44163;-26
2021/05/28 04:01:39;;;;;;;10.30;6.87;;;;;;;9.23;100.00;98757.05;3698846;79;43048;-25
2021/05/28 04:06:45;;;;;;;11.05;7.00;;;;;;;9.18;100.00;98762.86;3695855;79;44099;-20
2021/05/28 04:11:50;;;;;;;10.05;6.75;;;;;;;9.19;100.00;98769.08;3766162;77;71189;-20
2021/05/28 04:16:57;;;;;;;10.65;7.05;;;;;;;9.18;100.00;98759.31;3744670;77;44042;-21
2021/05/28 04:22:04;;;;;;;9.53;7.40;;;;;;;9.16;100.00;98755.44;3718575;79;43715;-21
2021/05/28 04:27:10;;;;;;;11.15;7.67;;;;;;;9.13;100.00;98759.75;3729387;77;43718;-21
2021/05/28 04:32:16;;;;;;;10.85;7.42;;;;;;;9.15;100.00;98756.42;3730248;78;43392;-21
2021/05/28 04:37:24;;;;;;;11.77;7.70;;;;;;;9.15;100.00;98763.66;3730339;78;75260;-21
2021/05/28 04:42:30;;;;;;;10.18;7.42;;;;;;;9.17;100.00;98771.92;3734238;78;43394;-20
2021/05/28 04:47:35;;;;;;;12.63;8.03;;;;;;;9.19;100.00;98774.45;3723626;79;44661;-20
2021/05/28 04:52:42;;;;;;;12.05;7.70;;;;;;;9.21;100.00;98780.06;3771115;77;43721;-20
2021/05/28 04:57:48;;;;;;;11.85;7.60;;;;;;;9.25;100.00;98784.13;3693851;79;43345;-22
2021/05/28 05:02:55;;;;;;;11.57;7.67;;;;;;;9.24;100.00;98791.84;3740268;78;44026;-22
2021/05/28 05:08:01;;;;;;;10.35;7.80;;;;;;;9.32;100.00;98795.16;3767838;77;43608;-21
2021/05/28 05:13:15;;;;;;;12.03;7.97;;;;;;;9.39;100.00;98799.47;3781774;77;43625;-22
2021/05/28 05:18:24;;;;;;;8.57;7.40;;;;;;;9.44;100.00;98798.55;3847094;76;43983;-21
2021/05/28 05:23:28;;;;;;;9.77;8.17;;;;;;;9.49;100.00;98801.64;3734317;79;75286;-21
2021/05/28 05:28:35;;;;;;;10.32;7.30;;;;;;;9.49;100.00;98808.36;3829524;76;43479;-21
2021/05/28 05:33:41;;;;;;;9.33;7.03;;;;;;;9.54;100.00;98806.10;3836964;76;42756;-21
2021/05/28 05:38:47;;;;;;;9.98;7.10;;;;;;;9.54;100.00;98821.38;3853207;76;44085;-21
2021/05/28 05:43:53;;;;;;;10.20;7.17;;;;;;;9.59;100.00;98822.28;3845188;76;43305;-21
2021/05/28 05:48:59;;;;;;;9.15;6.80;;;;;;;9.66;100.00;98825.59;3835103;76;43378;-21
2021/05/28 05:54:07;;;;;;;9.73;6.70;;;;;;;9.74;100.00;98821.34;3823258;76;43353;-21
2021/05/28 05:59:12;;;;;;;10.65;7.12;;;;;;;9.73;100.00;98823.69;3824189;76;44391;-21
2021/05/28 06:04:18;;;;;;;7.90;6.37;;;;;;;9.80;100.00;98828.34;3818090;76;43475;-21
2021/05/28 06:09:24;;;;;;;9.95;6.80;;;;;;;9.89;100.00;98841.91;3817435;76;44214;-21
2021/05/28 06:14:30;;;;;;;10.18;7.17;;;;;;;9.93;100.00;98844.66;3838713;76;44849;-21
2021/05/28 06:19:36;;;;;;;8.15;7.15;;;;;;;10.05;100.00;98838.10;3849620;76;44515;-21
2021/05/28 06:24:42;;;;;;;7.57;6.87;;;;;;;10.26;100.00;98846.44;3750437;79;43346;-21
2021/05/28 06:29:48;;;;;;;9.05;6.28;;;;;;;10.32;100.00;98847.17;3840743;76;43310;-21
2021/05/28 06:34:54;;;;;;;8.13;6.05;;;;;;;10.43;100.00;98856.44;3832367;76;43419;-21
2021/05/28 06:40:01;;;;;;;6.60;5.58;;;;;;;10.57;100.00;98851.55;3761874;77;43699;-21
2021/05/28 06:45:09;;;;;;;8.28;5.65;;;;;;;10.43;100.00;98865.03;3833323;76;44069;-21
2021/05/28 06:50:17;;;;;;;9.78;5.72;;;;;;;10.42;100.00;98872.25;3829631;76;44050;-21
2021/05/28 06:55:23;;;;;;;6.25;5.35;;;;;;;10.47;100.00;98879.39;3754722;77;43043;-21
2021/05/28 07:00:29;;;;;;;6.10;5.28;;;;;;;10.56;100.00;98886.22;3836481;76;43719;-21
2021/05/28 07:05:35;;;;;;;6.78;4.67;;;;;;;10.63;100.00;98889.52;3837863;76;44207;-21
2021/05/28 07:10:41;;;;;;;5.28;4.58;;;;;;;10.66;100.00;98899.66;3822820;76;44589;-21
2021/05/28 07:15:47;;;;;;;5.87;4.30;;;;;;;10.75;100.00;98900.95;3791693;77;43745;-21
2021/05/28 07:20:54;;;;;;;6.22;4.80;;;;;;;10.93;100.00;98903.69;3790630;77;43463;-21
2021/05/28 07:26:01;;;;;;;5.90;4.72;;;;;;;10.95;100.00;98908.40;3789017;77;44096;-21
2021/05/28 07:31:08;;;;;;;6.30;4.60;;;;;;;10.94;100.00;98912.61;3787349;77;43478;-21
2021/05/28 07:36:15;;;;;;;4.35;3.72;;;;;;;10.91;100.00;98916.95;3791706;77;44496;-21
2021/05/28 07:41:23;;;;;;;6.12;4.80;;;;;;;10.90;100.00;98923.33;3787765;77;44011;-22
2021/05/28 07:46:28;;;;;;;4.90;3.85;;;;;;;10.91;100.00;98920.51;3771104;77;43467;-21
2021/05/28 07:51:34;;;;;;;7.78;3.90;;;;;;;10.94;100.00;98922.05;3753685;77;42912;-21
2021/05/28 07:56:40;;;;;;;4.78;4.00;;;;;;;10.98;100.00;98920.75;3787365;77;44096;-21
2021/05/28 08:01:46;;;;;;;3.87;3.25;;;;;;;11.07;100.00;98914.44;3786969;77;43692;-22
2021/05/28 08:06:52;;;;;;;5.73;3.60;;;;;;;11.12;100.00;98913.98;3786642;77;69152;-21
2021/05/28 08:11:59;;;;;;;5.53;3.80;;;;;;;11.29;100.00;98914.16;3813376;76;43722;-21
2021/05/28 08:17:05;;;;;;;5.75;3.87;;;;;;;11.37;100.00;98910.17;3830988;76;44007;-21
2021/05/28 08:22:12;;;;;;;4.00;3.60;;;;;;;11.51;100.00;98916.39;3857097;76;43698;-21
2021/05/28 08:27:18;;;;;;;5.05;3.42;;;;;;;11.64;100.00;98919.19;3852577;76;44102;-22
2021/05/28 08:32:24;;;;;;;5.17;3.67;;;;;;;11.71;100.00;98910.80;3737474;79;44023;-21
2021/05/28 08:37:30;;;;;;;5.50;3.62;;;;;;;11.92;100.00;98908.25;3836511;76;44090;-21
2021/05/28 08:42:36;;;;;;;4.25;3.27;;;;;;;11.99;100.00;98914.77;3829607;76;43354;-20
2021/05/28 08:47:44;;;;;;;4.80;3.45;;;;;;;11.92;100.00;98921.27;3840059;76;43680;-23
2021/05/28 08:52:51;;;;;;;4.50;3.10;;;;;;;12.08;100.00;98923.74;3823180;76;44468;-20
2021/05/28 08:57:58;;;;;;;4.35;2.75;;;;;;;12.14;100.00;98924.47;3742515;79;44712;-21
2021/05/28 09:03:25;;;;;;;4.50;2.95;;;;;;;12.14;100.00;98924.47;3837589;76;43452;-21
2021/05/28 09:08:33;;;;;;;2.67;2.33;;;;;;;12.24;100.00;98922.51;3843184;76;43317;-21
2021/05/28 09:13:46;;;;;;;2.58;2.12;;;;;;;12.83;100.00;98915.02;3858424;76;44068;-21
2021/05/28 09:18:54;;;;;;;4.58;2.60;;;;;;;12.64;100.00;98915.60;3770235;78;44038;-21
2021/05/28 09:24:00;;;;;;;2.40;2.20;;;;;;;12.47;100.00;98918.73;3815118;77;43775;-21
2021/05/28 09:29:07;;;;;;;4.03;2.30;;;;;;;12.35;100.00;98918.67;3773865;78;44057;-20
2021/05/28 09:34:13;;;;;;;3.98;2.35;;;;;;;12.55;100.00;98917.09;3818128;77;44056;-20
2021/05/28 09:39:19;;;;;;;2.90;2.60;;;;;;;12.85;100.00;98914.35;3817716;77;43685;-21
2021/05/28 09:44:26;;;;;;;3.52;2.27;;;;;;;13.04;100.00;98909.17;3812147;77;43487;-21
2021/05/28 09:49:34;;;;;;;4.10;2.55;;;;;;;13.32;100.00;98916.16;3811444;77;44104;-20
2021/05/28 09:54:43;;;;;;;2.95;2.30;;;;;;;13.28;98.04;98914.78;3772726;78;43779;-21
2021/05/28 09:59:48;;;;;;;2.98;2.60;;;;;;;13.46;96.73;98907.41;3817621;77;44191;-21
2021/05/28 10:04:56;;;;;;;3.62;2.40;;;;;;;13.31;100.00;98919.34;3776022;78;42838;-21
2021/05/28 10:10:02;;;;;;;4.45;2.60;;;;;;;13.07;100.00;98928.27;3815115;77;44043;-21
2021/05/28 10:15:12;;;;;;;3.72;2.80;;;;;;;12.92;100.00;98930.77;3831159;76;43332;-21
2021/05/28 10:20:19;;;;;;;3.90;2.67;;;;;;;13.02;100.00;98928.77;3760678;77;43094;-21
2021/05/28 10:25:25;;;;;;;3.83;2.60;;;;;;;13.19;100.00;98936.91;3822206;76;44086;-19
2021/05/28 10:30:37;;;;;;;3.33;2.60;;;;;;;13.33;100.00;98934.91;3761594;77;44847;-20
2021/05/28 10:35:48;;;;;;;2.80;2.60;;;;;;;13.38;100.00;98940.69;3848109;76;43298;-20
2021/05/28 10:40:54;;;;;;;3.05;2.40;;;;;;;13.42;100.00;98935.81;3841212;76;43710;-21
2021/05/28 10:46:03;;;;;;;4.40;2.70;;;;;;;13.23;100.00;98931.00;3830906;76;43362;-20
2021/05/28 10:51:12;;;;;;;3.92;2.70;;;;;;;13.21;100.00;98927.64;3822214;76;44027;-20
2021/05/28 10:56:18;;;;;;;2.98;2.60;;;;;;;13.35;100.00;98934.73;3833228;76;44222;-21
2021/05/28 11:01:47;;;;;;;3.45;2.72;;;;;;;13.35;100.00;98925.27;3776986;77;43700;-21
2021/05/28 11:07:17;;;;;;;4.58;2.75;;;;;;;13.65;100.00;98916.20;3832443;76;43690;-20
2021/05/28 11:12:41;;;;;;;2.75;2.20;;;;;;;13.93;96.48;98907.22;3837116;76;43477;-21
2021/05/28 11:18:00;;;;;;;2.62;2.40;;;;;;;13.85;90.31;98893.69;3761819;77;44818;-21
2021/05/28 11:23:10;;;;;;;2.50;2.30;;;;;;;13.80;94.03;98905.05;3869732;76;43038;-21
2021/05/28 11:28:15;;;;;;;3.17;2.40;;;;;;;13.83;92.76;98908.73;3773285;77;44047;-21
2021/05/28 11:33:42;;;;;;;4.12;2.65;;;;;;;14.00;96.52;98896.55;3848265;76;43683;-21
2021/05/28 11:38:56;;;;;;;3.12;2.45;;;;;;;14.25;93.58;98898.69;3847273;76;43405;-21
2021/05/28 11:44:03;;;;;;;3.70;2.30;;;;;;;14.38;96.70;98887.31;3838415;76;43971;-21
2021/05/28 11:49:09;;;;;;;3.30;2.20;;;;;;;14.55;97.51;98878.61;3829463;76;44005;-21
2021/05/28 11:54:24;;;;;;;3.95;2.40;;;;;;;14.99;94.75;98873.67;3859384;76;43997;-21
2021/05/28 11:59:47;;;;;;;4.05;2.40;;;;;;;14.99;87.03;98873.67;3841843;76;44523;-22
2021/05/28 12:04:54;;;;;;;3.12;1.98;;;;;;;14.84;87.51;98874.42;3831896;76;43443;-22
2021/05/28 12:10:05;;;;;;;2.50;2.30;;;;;;;14.91;87.12;98870.48;3848456;76;44855;-22
2021/05/28 12:15:12;;;;;;;2.47;2.00;;;;;;;14.74;78.62;98876.52;3846000;76;44023;-22
2021/05/28 12:20:22;;;;;;;4.87;2.30;;;;;;;14.52;74.02;98881.66;3851308;76;43115;-21
2021/05/28 12:25:29;;;;;;;2.70;2.00;;;;;;;15.07;77.39;98874.47;3840424;76;44020;-21
2021/05/28 12:30:35;;;;;;;2.35;2.05;;;;;;;15.30;72.40;98870.92;3823255;76;44054;-22
2021/05/28 12:35:41;;;;;;;3.17;1.80;;;;;;;15.77;64.52;98865.45;3847961;76;43385;-22
2021/05/28 12:40:48;;;;;;;4.22;1.80;;;;;;;15.70;68.96;98868.89;3779642;77;44066;-22
2021/05/28 12:45:55;;;;;;;1.70;1.57;;;;;;;15.32;67.94;98867.52;3835461;76;43710;-22
2021/05/28 12:51:02;;;;;;;2.25;1.80;;;;;;;14.75;58.33;98872.28;3839318;76;44027;-22
2021/05/28 12:56:09;;;;;;;1.92;1.60;;;;;;;14.81;70.46;98862.59;3746731;77;43468;-22
2021/05/28 13:01:18;;;;;;;1.50;1.40;;;;;;;15.11;58.23;98854.59;3850604;76;44361;-22
2021/05/28 13:06:36;;;;;;;1.67;1.37;;;;;;;15.71;55.78;98848.84;3822725;76;43772;-22
2021/05/28 13:12:10;;;;;;;1.87;1.60;;;;;;;16.04;67.61;98853.16;3821882;76;44064;-22
2021/05/28 13:17:28;;;;;;;1.50;1.40;;;;;;;16.44;62.77;98851.02;3858639;76;44136;-22
2021/05/28 13:22:36;;;;;;;1.62;1.40;;;;;;;16.10;63.52;98844.27;3731608;79;43493;-22
2021/05/28 13:27:43;;;;;;;1.35;1.00;;;;;;;16.56;57.13;98840.48;3839178;76;44051;-22
2021/05/28 13:32:50;;;;;;;1.40;1.15;;;;;;;16.34;57.90;98836.86;3839833;76;44338;-22
2021/05/28 13:37:55;;;;;;;1.22;1.10;;;;;;;16.25;60.71;98835.25;3830115;76;43153;-22
2021/05/28 13:43:01;;;;;;;1.50;1.40;;;;;;;16.06;58.69;98829.85;3843071;76;44078;-22
2021/05/28 13:48:07;;;;;;;3.45;1.30;;;;;;;15.89;51.41;98838.20;3827297;76;44099;-21
2021/05/28 13:53:17;;;;;;;1.30;1.20;;;;;;;15.69;53.32;98829.20;3838101;76;43464;-23
2021/05/28 13:58:24;;;;;;;1.42;1.15;;;;;;;16.10;59.88;98827.10;3836165;76;44684;-20
2021/05/28 14:03:30;;;;;;;1.40;1.27;;;;;;;16.72;53.19;98828.53;3838034;76;43435;-21
2021/05/28 14:08:36;;;;;;;1.70;1.30;;;;;;;16.58;55.84;98823.45;3823473;76;43257;-21
2021/05/28 14:13:45;;;;;;;1.32;1.07;;;;;;;16.48;54.09;98826.99;3812040;76;44481;-21
2021/05/28 14:18:52;;;;;;;1.67;1.20;;;;;;;17.07;52.47;98811.58;3832939;76;43685;-21
2021/05/28 14:24:02;;;;;;;1.50;1.20;;;;;;;17.22;52.33;98807.42;3863790;76;44028;-21
2021/05/28 14:29:10;;;;;;;2.40;1.20;;;;;;;16.94;53.54;98814.48;3765295;77;44087;-22
2021/05/28 14:34:18;;;;;;;4.28;1.50;;;;;;;16.62;53.76;98817.97;3845543;76;26636;-21
2021/05/28 14:39:24;;;;;;;1.75;1.20;;;;;;;16.41;53.82;98817.88;3842834;76;43996;-21
2021/05/28 14:44:31;;;;;;;1.30;1.20;;;;;;;16.24;57.58;98807.73;3824377;76;43119;-21
2021/05/28 14:49:37;;;;;;;1.45;1.20;;;;;;;16.09;54.72;98814.04;3846302;76;43197;-21
2021/05/28 14:54:42;;;;;;;1.65;1.07;;;;;;;15.97;57.24;98812.28;3832522;76;44913;-21
2021/05/28 14:59:50;;;;;;;1.20;1.10;;;;;;;15.92;58.51;98808.44;3824295;76;43142;-21
2021/05/28 15:04:56;;;;;;;1.40;1.30;;;;;;;15.89;62.07;98801.52;3842471;76;44031;-21
2021/05/28 15:10:02;;;;;;;1.90;1.27;;;;;;;15.74;57.96;98795.19;3826891;76;43338;-21
2021/05/28 15:15:10;;;;;;;2.12;1.20;;;;;;;15.74;59.28;98792.47;3770587;77;43986;-21
2021/05/28 15:20:16;;;;;;;1.30;1.20;;;;;;;15.61;59.40;98798.55;3815854;76;44458;-22
2021/05/28 15:25:22;;;;;;;1.62;1.22;;;;;;;15.57;56.83;98799.44;3838878;76;43625;-22
2021/05/28 15:30:28;;;;;;;1.55;1.20;;;;;;;15.54;54.05;98791.66;3722610;79;43352;-20
2021/05/28 15:35:36;;;;;;;1.42;1.15;;;;;;;15.93;53.85;98793.83;3847406;76;43322;-20
2021/05/28 15:40:43;;;;;;;1.32;1.02;;;;;;;16.38;53.40;98780.22;3831112;76;43440;-23
2021/05/28 15:45:49;;;;;;;1.10;1.10;;;;;;;16.37;56.01;98779.89;3755732;79;44125;-22
2021/05/28 15:50:57;;;;;;;1.57;1.30;;;;;;;16.18;55.61;98775.34;3831088;76;43272;-21
2021/05/28 15:56:05;;;;;;;1.40;1.30;;;;;;;15.94;54.55;98778.69;3729486;79;44184;-22
2021/05/28 16:01:12;;;;;;;1.70;1.40;;;;;;;15.96;58.72;98781.23;3803901;76;44483;-22
2021/05/28 16:06:18;;;;;;;2.15;1.32;;;;;;;15.84;58.23;98783.52;3809289;76;43682;-22
2021/05/28 16:11:25;;;;;;;2.02;1.20;;;;;;;15.93;60.22;98772.95;3849950;76;44067;-23
2021/05/28 16:16:31;;;;;;;1.25;1.12;;;;;;;16.28;57.31;98773.70;3818939;76;44620;-22
2021/05/28 16:21:38;;;;;;;1.70;1.32;;;;;;;16.82;58.97;98762.92;3737945;77;43395;-22
2021/05/28 16:26:46;;;;;;;2.95;1.60;;;;;;;17.19;54.32;98754.20;3689685;79;43111;-20
2021/05/28 16:31:52;;;;;;;2.65;1.50;;;;;;;17.12;57.20;98746.48;3764088;77;44021;-27
2021/05/28 16:36:57;;;;;;;1.85;1.60;;;;;;;17.25;57.51;98758.86;3717491;79;43685;-21
2021/05/28 16:42:04;;;;;;;1.85;1.60;;;;;;;17.28;55.78;98766.31;3731987;78;44115;-22
2021/05/28 16:47:12;;;;;;;3.60;1.85;;;;;;;16.95;59.17;98762.23;3768238;77;43678;-23
2021/05/28 16:52:20;;;;;;;2.52;1.60;;;;;;;16.61;61.37;98759.16;3755730;77;43821;-22
2021/05/28 16:57:29;;;;;;;1.87;1.77;;;;;;;16.04;63.13;98768.07;3758256;77;43992;-20
2021/05/28 17:02:37;;;;;;;2.22;1.40;;;;;;;15.62;66.13;98769.83;3731175;77;43983;-24
2021/05/28 17:07:45;;;;;;;2.25;1.80;;;;;;;15.33;68.84;98772.84;3688592;77;43392;-22
2021/05/28 17:12:51;;;;;;;1.87;1.55;;;;;;;15.38;71.99;98773.65;3740391;79;44638;-23
2021/05/28 17:17:58;;;;;;;2.25;1.70;;;;;;;15.31;69.48;98767.25;3711925;79;43321;-22
2021/05/28 17:23:04;;;;;;;2.25;1.50;;;;;;;15.35;71.10;98772.12;3815355;77;44041;-22
2021/05/28 17:28:10;;;;;;;1.70;1.60;;;;;;;15.27;70.23;98779.52;3724597;77;43616;-22
2021/05/28 17:33:17;;;;;;;1.82;1.70;;;;;;;14.94;72.60;98781.97;3815013;77;43549;-23
2021/05/28 17:38:24;;;;;;;3.12;2.20;;;;;;;14.89;75.73;98780.30;3814469;77;44036;-23
2021/05/28 17:43:31;;;;;;;2.45;1.80;;;;;;;14.64;78.58;98776.38;3820184;77;44097;-22
2021/05/28 17:48:38;;;;;;;2.02;1.60;;;;;;;14.74;77.93;98785.16;3829566;77;43299;-22
2021/05/28 17:53:44;;;;;;;1.50;1.40;;;;;;;14.52;76.41;98788.66;3825537;76;43257;-22
2021/05/28 17:58:49;;;;;;;2.62;1.70;;;;;;;14.36;75.00;98798.55;3832006;76;42891;-21
2021/05/28 18:03:55;;;;;;;1.70;1.60;;;;;;;14.02;76.95;98791.57;3755643;79;44124;-21
2021/05/28 18:09:02;;;;;;;2.27;1.70;;;;;;;13.84;78.88;98791.27;3830821;76;43738;-21
2021/05/28 18:14:09;;;;;;;2.10;1.60;;;;;;;13.54;84.53;98796.91;3834320;77;43381;-22
2021/05/28 18:19:15;;;;;;;2.65;1.60;;;;;;;13.47;86.97;98800.81;3829397;76;42832;-21
2021/05/28 18:24:21;;;;;;;2.40;1.60;;;;;;;13.35;87.03;98808.41;3825975;76;44550;-20
2021/05/28 18:29:27;;;;;;;2.27;1.62;;;;;;;13.22;83.42;98806.72;3825169;76;43713;-22
2021/05/28 18:34:33;;;;;;;2.77;2.10;;;;;;;13.18;80.50;98799.45;3828113;77;44427;-22
2021/05/28 18:39:41;;;;;;;2.10;1.90;;;;;;;13.07;86.42;98810.60;3821627;77;43035;-21
2021/05/28 18:44:47;;;;;;;2.92;1.70;;;;;;;12.91;84.31;98817.67;3827738;77;43424;-22
2021/05/28 18:49:54;;;;;;;2.72;1.85;;;;;;;12.66;92.39;98830.80;3818107;77;43213;-22
2021/05/28 18:55:00;;;;;;;2.85;2.17;;;;;;;12.45;92.37;98841.06;3821676;76;44082;-21
2021/05/28 19:00:10;;;;;;;3.92;2.30;;;;;;;12.47;94.28;98842.23;3817188;77;43705;-21
2021/05/28 19:05:19;;;;;;;2.98;2.60;;;;;;;12.27;99.00;98866.81;3815026;76;43432;-21
2021/05/28 19:10:26;;;;;;;2.70;2.50;;;;;;;12.23;100.00;98872.70;3815590;76;43357;-22
2021/05/28 19:15:32;;;;;;;2.60;2.40;;;;;;;12.15;100.00;98880.25;3816767;77;43490;-22
2021/05/28 19:20:40;;;;;;;2.80;2.22;;;;;;;11.90;100.00;98895.41;3846695;76;43408;-21
2021/05/28 19:25:47;;;;;;;4.90;3.37;;;;;;;11.44;100.00;98922.03;3801413;77;43836;-22
2021/05/28 19:30:55;;;;;;;5.53;3.55;;;;;;;10.90;100.00;98924.68;3775702;77;43002;-21
2021/05/28 19:36:01;;;;;;;5.45;4.05;;;;;;;10.18;100.00;98944.95;3792550;77;42929;-22
2021/05/28 19:41:08;;;;;;;5.83;4.03;;;;;;;9.71;100.00;98955.17;3793337;77;43673;-20
2021/05/28 19:46:14;;;;;;;4.55;3.37;;;;;;;9.56;100.00;98973.59;3811715;77;44070;-22
2021/05/28 19:51:20;;;;;;;3.92;3.25;;;;;;;9.50;100.00;98972.79;3779087;77;44082;-22
2021/05/28 19:56:26;;;;;;;5.55;3.33;;;;;;;9.51;100.00;98976.34;3796214;77;43685;-21
2021/05/28 20:01:35;;;;;;;3.92;2.90;;;;;;;9.54;100.00;98982.29;3783278;77;73248;-22
2021/05/28 20:06:41;;;;;;;3.20;2.90;;;;;;;9.47;100.00;98988.36;3785391;77;43312;-21
2021/05/28 20:14:24;;;;;;;4.95;3.00;;;;;;;9.44;100.00;98984.60;3807287;77;44092;-22
2021/05/28 20:17:09;;;;;;;4.10;3.10;;;;;;;9.40;100.00;98980.00;3775272;77;73186;-21
2021/05/28 20:22:15;;;;;;;4.40;2.83;;;;;;;9.40;100.00;98975.97;3777722;77;44306;-22
2021/05/28 20:27:21;;;;;;;3.60;3.12;;;;;;;9.32;100.00;98971.80;3784541;77;43987;-22
2021/05/28 20:32:28;;;;;;;9.00;5.03;;;;;;;9.39;100.00;98958.13;3796332;77;43447;-22
2021/05/28 20:37:36;;;;;;;6.58;5.10;;;;;;;9.39;100.00;98952.75;3806463;77;44202;-21
2021/05/28 20:42:43;;;;;;;7.27;5.23;;;;;;;9.38;100.00;98953.27;3821694;77;44062;-21
2021/05/28 20:47:50;;;;;;;5.28;3.65;;;;;;;9.29;100.00;98969.38;3814310;76;44035;-21
2021/05/28 20:52:58;;;;;;;4.57;3.67;;;;;;;9.17;100.00;98967.33;3812956;77;44122;-21
2021/05/28 20:58:04;;;;;;;5.10;3.80;;;;;;;9.12;100.00;98965.02;3813265;77;68983;-21
2021/05/28 21:03:14;;;;;;;4.42;3.47;;;;;;;9.06;100.00;98964.25;3818203;77;43352;-21
2021/05/28 21:08:21;;;;;;;4.53;2.95;;;;;;;8.90;100.00;98966.13;3807857;77;43456;-21
2021/05/28 21:13:28;;;;;;;4.63;3.23;;;;;;;8.65;100.00;98977.70;3806425;77;43391;-21
2021/05/28 21:18:34;;;;;;;4.33;2.97;;;;;;;8.62;100.00;98969.91;3802677;77;44002;-20
2021/05/28 21:23:42;;;;;;;4.40;3.40;;;;;;;8.60;100.00;98971.39;3817341;77;44280;-21
2021/05/28 21:28:47;;;;;;;6.27;3.50;;;;;;;8.46;100.00;98978.43;3811684;76;43583;-21
2021/05/28 21:33:53;;;;;;;3.97;3.27;;;;;;;8.41;100.00;98980.69;3812741;77;43155;-21
2021/05/28 21:38:59;;;;;;;6.60;3.70;;;;;;;8.41;100.00;98980.69;3808893;77;43708;-21
2021/05/28 21:44:06;;;;;;;6.17;3.60;;;;;;;8.40;100.00;98985.69;3813724;76;44121;-22
2021/05/28 21:49:13;;;;;;;4.90;3.37;;;;;;;8.25;100.00;98987.37;3808606;77;69070;-20
2021/05/28 21:54:19;;;;;;;7.35;3.67;;;;;;;8.09;100.00;98990.53;3809548;77;69231;-21
2021/05/28 21:59:25;;;;;;;6.67;3.50;;;;;;;7.75;100.00;98993.88;3806168;76;44192;-21
2021/05/28 22:04:31;;;;;;;3.37;3.05;;;;;;;7.64;100.00;98999.66;3801576;77;73354;-21
2021/05/28 22:09:37;;;;;;;4.37;3.30;;;;;;;7.59;100.00;99000.52;3800498;77;44045;-21
2021/05/28 22:14:44;;;;;;;5.40;3.60;;;;;;;7.62;100.00;99004.28;3817744;76;69618;-24
2021/05/28 22:19:50;;;;;;;238.47;13.53;;;;;;;7.61;100.00;99001.75;3818015;77;43475;-23
2021/05/28 22:24:56;;;;;;;13.90;3.70;;;;;;;7.42;100.00;98998.39;3730237;79;44270;-23
2021/05/28 22:35:31;;;;;;;5.30;3.37;;;;;;;7.13;100.00;99009.19;3829612;77;43436;-22
2021/05/28 22:40:39;;;;;;;5.30;3.73;;;;;;;7.17;100.00;99008.45;3744462;78;43268;-22
2021/05/28 22:45:47;;;;;;;8.50;4.30;;;;;;;7.21;100.00;99002.70;3819552;76;44031;-23
2021/05/28 22:51:05;;;;;;;6.60;3.93;;;;;;;7.24;100.00;98995.77;3828092;76;44058;-22
2021/05/28 22:56:12;;;;;;;4.97;3.58;;;;;;;7.30;100.00;99002.92;3820938;77;69056;-23
2021/05/28 23:01:21;;;;;;;8.20;4.50;;;;;;;7.33;100.00;98997.31;3828216;76;44108;-22
2021/05/28 23:06:27;;;;;;;7.87;2.97;;;;;;;7.42;100.00;98994.37;3821620;77;43395;-22
2021/05/28 23:17:00;;;;;;;4.87;2.70;;;;;;;7.19;100.00;98999.30;3823565;76;43677;-22
2021/05/28 23:22:06;;;;;;;5.87;3.00;;;;;;;7.14;100.00;99003.33;3832363;76;69082;-22
2021/05/28 23:27:12;;;;;;;6.78;3.83;;;;;;;7.15;100.00;99004.56;3787018;77;69456;-22
2021/05/28 23:32:18;;;;;;;7.13;3.77;;;;;;;7.18;100.00;99008.31;3792460;77;43696;-22
2021/05/28 23:37:23;;;;;;;8.33;4.47;;;;;;;7.16;100.00;98998.23;3788363;77;43986;-22
2021/05/28 23:42:31;;;;;;;10.57;4.83;;;;;;;7.16;100.00;99001.38;3775214;77;43792;-22
2021/05/28 23:47:40;;;;;;;6.62;4.47;;;;;;;7.17;100.00;98993.23;3786173;77;69060;-22
2021/05/28 23:52:45;;;;;;;30.67;5.97;;;;;;;7.23;100.00;98997.24;3736014;79;71191;-23
2021/05/28 23:57:51;;;;;;;14.00;5.00;;;;;;;7.27;100.00;98997.34;3730690;78;75528;-23
